sensor_id;sensor_type;location;lat;lon;timestamp;P1;durP1;ratioP1;P2;durP2;ratioP2
4144;SDS011;2086;51.050;6.982;2022-07-21T00:00:18;3.10;;;2.90;;
4144;SDS011;2086;51.050;6.982;2022-07-21T00:02:44;2.40;;;2.30;;
4144;SDS011;2086;51.050;6.982;2022-07-21T00:05:09;4.33;;;3.63;;
4144;SDS011;2086;51.050;6.982;2022-07-21T00:07:34;2.93;;;2.73;;
4144;SDS011;2086;51.050;6.982;2022-07-21T00:10:00;4.60;;;3.23;;
4144;SDS011;2086;51.050;6.982;2022-07-21T00:12:25;3.57;;;3.30;;
4144;SDS011;2086;51.050;6.982;2022-07-21T00:14:50;4.13;;;3.60;;
4144;SDS011;2086;51.050;6.982;2022-07-21T00:17:15;4.60;;;3.63;;
4144;SDS011;2086;51.050;6.982;2022-07-21T00:19:41;4.23;;;2.83;;
4144;SDS011;2086;51.050;6.982;2022-07-21T00:22:06;3.03;;;2.83;;
4144;SDS011;2086;51.050;6.982;2022-07-21T00:24:31;3.37;;;2.73;;
4144;SDS011;2086;51.050;6.982;2022-07-21T00:26:56;3.40;;;3.10;;
4144;SDS011;2086;51.050;6.982;2022-07-21T00:29:21;3.10;;;2.90;;
4144;SDS011;2086;51.050;6.982;2022-07-21T00:31:47;2.73;;;2.40;;
4144;SDS011;2086;51.050;6.982;2022-07-21T00:34:12;2.77;;;2.63;;
4144;SDS011;2086;51.050;6.982;2022-07-21T00:36:37;3.17;;;2.87;;
4144;SDS011;2086;51.050;6.982;2022-07-21T00:39:02;2.97;;;2.77;;
4144;SDS011;2086;51.050;6.982;2022-07-21T00:41:28;3.53;;;3.27;;
4144;SDS011;2086;51.050;6.982;2022-07-21T00:43:53;2.60;;;2.50;;
4144;SDS011;2086;51.050;6.982;2022-07-21T00:46:21;6.03;;;3.10;;
4144;SDS011;2086;51.050;6.982;2022-07-21T00:48:47;3.07;;;2.40;;
4144;SDS011;2086;51.050;6.982;2022-07-21T00:51:12;2.87;;;2.67;;
4144;SDS011;2086;51.050;6.982;2022-07-21T00:53:37;3.87;;;3.53;;
4144;SDS011;2086;51.050;6.982;2022-07-21T00:56:03;3.33;;;3.13;;
4144;SDS011;2086;51.050;6.982;2022-07-21T00:58:28;6.17;;;2.30;;
4144;SDS011;2086;51.050;6.982;2022-07-21T01:00:53;4.10;;;3.00;;
4144;SDS011;2086;51.050;6.982;2022-07-21T01:03:19;2.27;;;2.17;;
4144;SDS011;2086;51.050;6.982;2022-07-21T01:05:44;0.40;;;0.30;;
4144;SDS011;2086;51.050;6.982;2022-07-21T01:08:09;0.40;;;0.30;;
4144;SDS011;2086;51.050;6.982;2022-07-21T01:10:35;0.40;;;0.40;;
4144;SDS011;2086;51.050;6.982;2022-07-21T01:13:01;0.40;;;0.30;;
4144;SDS011;2086;51.050;6.982;2022-07-21T01:15:26;0.40;;;0.30;;
4144;SDS011;2086;51.050;6.982;2022-07-21T01:17:51;0.40;;;0.30;;
4144;SDS011;2086;51.050;6.982;2022-07-21T01:20:18;0.50;;;0.50;;
4144;SDS011;2086;51.050;6.982;2022-07-21T01:22:44;0.40;;;0.30;;
4144;SDS011;2086;51.050;6.982;2022-07-21T01:25:10;0.40;;;0.30;;
4144;SDS011;2086;51.050;6.982;2022-07-21T01:27:35;0.43;;;0.37;;
4144;SDS011;2086;51.050;6.982;2022-07-21T01:30:00;0.40;;;0.30;;
4144;SDS011;2086;51.050;6.982;2022-07-21T01:32:26;0.40;;;0.30;;
4144;SDS011;2086;51.050;6.982;2022-07-21T01:34:51;0.40;;;0.30;;
4144;SDS011;2086;51.050;6.982;2022-07-21T01:37:23;0.40;;;0.30;;
4144;SDS011;2086;51.050;6.982;2022-07-21T01:39:52;0.40;;;0.30;;
4144;SDS011;2086;51.050;6.982;2022-07-21T01:42:36;0.40;;;0.30;;
4144;SDS011;2086;51.050;6.982;2022-07-21T01:45:01;0.40;;;0.30;;
4144;SDS011;2086;51.050;6.982;2022-07-21T01:47:27;0.40;;;0.30;;
4144;SDS011;2086;51.050;6.982;2022-07-21T01:49:52;0.40;;;0.30;;
4144;SDS011;2086;51.050;6.982;2022-07-21T01:52:18;0.40;;;0.30;;
4144;SDS011;2086;51.050;6.982;2022-07-21T01:54:43;0.40;;;0.30;;
4144;SDS011;2086;51.050;6.982;2022-07-21T01:57:08;0.40;;;0.30;;
4144;SDS011;2086;51.050;6.982;2022-07-21T01:59:33;0.40;;;0.30;;
4144;SDS011;2086;51.050;6.982;2022-07-21T02:01:59;0.40;;;0.30;;
4144;SDS011;2086;51.050;6.982;2022-07-21T02:04:24;0.50;;;0.40;;
4144;SDS011;2086;51.050;6.982;2022-07-21T02:06:49;0.93;;;0.93;;
4144;SDS011;2086;51.050;6.982;2022-07-21T02:09:14;0.40;;;0.30;;
4144;SDS011;2086;51.050;6.982;2022-07-21T02:11:40;0.50;;;0.47;;
4144;SDS011;2086;51.050;6.982;2022-07-21T02:14:05;0.40;;;0.30;;
4144;SDS011;2086;51.050;6.982;2022-07-21T02:16:31;0.40;;;0.30;;
4144;SDS011;2086;51.050;6.982;2022-07-21T02:18:56;0.40;;;0.30;;
4144;SDS011;2086;51.050;6.982;2022-07-21T02:21:21;0.47;;;0.47;;
4144;SDS011;2086;51.050;6.982;2022-07-21T02:23:46;0.40;;;0.30;;
4144;SDS011;2086;51.050;6.982;2022-07-21T02:26:12;0.40;;;0.30;;
4144;SDS011;2086;51.050;6.982;2022-07-21T02:28:37;0.40;;;0.30;;
4144;SDS011;2086;51.050;6.982;2022-07-21T02:31:03;0.40;;;0.40;;
4144;SDS011;2086;51.050;6.982;2022-07-21T02:33:28;0.97;;;0.97;;
4144;SDS011;2086;51.050;6.982;2022-07-21T02:35:53;0.40;;;0.30;;
4144;SDS011;2086;51.050;6.982;2022-07-21T02:38:18;0.40;;;0.30;;
4144;SDS011;2086;51.050;6.982;2022-07-21T02:40:44;0.40;;;0.30;;
4144;SDS011;2086;51.050;6.982;2022-07-21T02:43:09;0.40;;;0.30;;
4144;SDS011;2086;51.050;6.982;2022-07-21T02:45:34;0.83;;;0.83;;
4144;SDS011;2086;51.050;6.982;2022-07-21T02:50:27;0.40;;;0.30;;
4144;SDS011;2086;51.050;6.982;2022-07-21T02:52:54;0.40;;;0.30;;
4144;SDS011;2086;51.050;6.982;2022-07-21T02:55:20;0.97;;;0.97;;
4144;SDS011;2086;51.050;6.982;2022-07-21T02:57:45;0.40;;;0.30;;
4144;SDS011;2086;51.050;6.982;2022-07-21T03:00:10;0.70;;;0.60;;
4144;SDS011;2086;51.050;6.982;2022-07-21T03:02:36;0.40;;;0.30;;
4144;SDS011;2086;51.050;6.982;2022-07-21T03:05:01;0.40;;;0.30;;
4144;SDS011;2086;51.050;6.982;2022-07-21T03:07:27;0.40;;;0.40;;
4144;SDS011;2086;51.050;6.982;2022-07-21T03:09:52;0.83;;;0.77;;
4144;SDS011;2086;51.050;6.982;2022-07-21T03:12:17;0.40;;;0.40;;
4144;SDS011;2086;51.050;6.982;2022-07-21T03:14:43;4.80;;;2.47;;
4144;SDS011;2086;51.050;6.982;2022-07-21T03:17:08;0.40;;;0.30;;
4144;SDS011;2086;51.050;6.982;2022-07-21T03:19:33;0.40;;;0.30;;
4144;SDS011;2086;51.050;6.982;2022-07-21T03:21:58;0.83;;;0.83;;
4144;SDS011;2086;51.050;6.982;2022-07-21T03:24:24;0.40;;;0.30;;
4144;SDS011;2086;51.050;6.982;2022-07-21T03:26:49;0.40;;;0.30;;
4144;SDS011;2086;51.050;6.982;2022-07-21T03:29:14;0.40;;;0.30;;
4144;SDS011;2086;51.050;6.982;2022-07-21T03:31:40;0.40;;;0.30;;
4144;SDS011;2086;51.050;6.982;2022-07-21T03:34:05;1.73;;;1.03;;
4144;SDS011;2086;51.050;6.982;2022-07-21T03:36:31;0.40;;;0.40;;
4144;SDS011;2086;51.050;6.982;2022-07-21T03:38:56;0.40;;;0.30;;
4144;SDS011;2086;51.050;6.982;2022-07-21T03:41:21;0.40;;;0.30;;
4144;SDS011;2086;51.050;6.982;2022-07-21T03:43:46;0.40;;;0.30;;
4144;SDS011;2086;51.050;6.982;2022-07-21T03:46:12;0.40;;;0.30;;
4144;SDS011;2086;51.050;6.982;2022-07-21T03:48:37;0.53;;;0.53;;
4144;SDS011;2086;51.050;6.982;2022-07-21T03:51:02;0.40;;;0.40;;
4144;SDS011;2086;51.050;6.982;2022-07-21T03:53:28;0.40;;;0.30;;
4144;SDS011;2086;51.050;6.982;2022-07-21T03:55:53;0.40;;;0.30;;
4144;SDS011;2086;51.050;6.982;2022-07-21T03:58:18;0.40;;;0.30;;
4144;SDS011;2086;51.050;6.982;2022-07-21T04:00:44;0.40;;;0.40;;
4144;SDS011;2086;51.050;6.982;2022-07-21T04:03:10;0.40;;;0.30;;
4144;SDS011;2086;51.050;6.982;2022-07-21T04:05:37;3.40;;;1.27;;
4144;SDS011;2086;51.050;6.982;2022-07-21T04:08:02;0.40;;;0.30;;
4144;SDS011;2086;51.050;6.982;2022-07-21T04:10:28;0.40;;;0.30;;
4144;SDS011;2086;51.050;6.982;2022-07-21T04:12:54;0.40;;;0.30;;
4144;SDS011;2086;51.050;6.982;2022-07-21T04:15:20;0.40;;;0.30;;
4144;SDS011;2086;51.050;6.982;2022-07-21T04:17:45;0.40;;;0.30;;
4144;SDS011;2086;51.050;6.982;2022-07-21T04:20:11;0.50;;;0.50;;
4144;SDS011;2086;51.050;6.982;2022-07-21T04:22:37;0.40;;;0.40;;
4144;SDS011;2086;51.050;6.982;2022-07-21T04:25:03;0.40;;;0.30;;
4144;SDS011;2086;51.050;6.982;2022-07-21T04:27:29;0.40;;;0.30;;
4144;SDS011;2086;51.050;6.982;2022-07-21T04:29:54;0.40;;;0.30;;
4144;SDS011;2086;51.050;6.982;2022-07-21T04:32:19;0.43;;;0.43;;
4144;SDS011;2086;51.050;6.982;2022-07-21T04:34:45;0.40;;;0.30;;
4144;SDS011;2086;51.050;6.982;2022-07-21T04:37:10;0.40;;;0.40;;
4144;SDS011;2086;51.050;6.982;2022-07-21T04:39:35;0.60;;;0.60;;
4144;SDS011;2086;51.050;6.982;2022-07-21T04:42:00;0.40;;;0.40;;
4144;SDS011;2086;51.050;6.982;2022-07-21T04:44:26;0.40;;;0.30;;
4144;SDS011;2086;51.050;6.982;2022-07-21T04:46:51;0.50;;;0.50;;
4144;SDS011;2086;51.050;6.982;2022-07-21T04:49:16;0.40;;;0.30;;
4144;SDS011;2086;51.050;6.982;2022-07-21T04:51:41;0.40;;;0.30;;
4144;SDS011;2086;51.050;6.982;2022-07-21T04:54:07;0.40;;;0.30;;
4144;SDS011;2086;51.050;6.982;2022-07-21T04:56:32;0.40;;;0.30;;
4144;SDS011;2086;51.050;6.982;2022-07-21T04:58:59;0.97;;;0.97;;
4144;SDS011;2086;51.050;6.982;2022-07-21T05:01:24;0.40;;;0.30;;
4144;SDS011;2086;51.050;6.982;2022-07-21T05:03:49;0.40;;;0.30;;
4144;SDS011;2086;51.050;6.982;2022-07-21T05:06:15;0.40;;;0.30;;
4144;SDS011;2086;51.050;6.982;2022-07-21T05:08:40;0.40;;;0.30;;
4144;SDS011;2086;51.050;6.982;2022-07-21T05:11:05;1.80;;;0.93;;
4144;SDS011;2086;51.050;6.982;2022-07-21T05:13:30;0.40;;;0.30;;
4144;SDS011;2086;51.050;6.982;2022-07-21T05:15:56;0.40;;;0.30;;
4144;SDS011;2086;51.050;6.982;2022-07-21T05:18:21;0.40;;;0.30;;
4144;SDS011;2086;51.050;6.982;2022-07-21T05:20:46;0.67;;;0.67;;
4144;SDS011;2086;51.050;6.982;2022-07-21T05:23:11;0.40;;;0.30;;
4144;SDS011;2086;51.050;6.982;2022-07-21T05:25:37;0.40;;;0.30;;
4144;SDS011;2086;51.050;6.982;2022-07-21T05:28:02;0.40;;;0.30;;
4144;SDS011;2086;51.050;6.982;2022-07-21T05:30:28;0.40;;;0.40;;
4144;SDS011;2086;51.050;6.982;2022-07-21T05:32:53;0.40;;;0.40;;
4144;SDS011;2086;51.050;6.982;2022-07-21T05:35:18;0.40;;;0.30;;
4144;SDS011;2086;51.050;6.982;2022-07-21T05:37:44;0.40;;;0.30;;
4144;SDS011;2086;51.050;6.982;2022-07-21T05:40:10;0.40;;;0.30;;
4144;SDS011;2086;51.050;6.982;2022-07-21T05:42:36;0.40;;;0.30;;
4144;SDS011;2086;51.050;6.982;2022-07-21T05:45:01;0.50;;;0.50;;
4144;SDS011;2086;51.050;6.982;2022-07-21T05:47:27;0.40;;;0.30;;
4144;SDS011;2086;51.050;6.982;2022-07-21T05:49:53;0.40;;;0.30;;
4144;SDS011;2086;51.050;6.982;2022-07-21T05:52:18;0.40;;;0.30;;
4144;SDS011;2086;51.050;6.982;2022-07-21T05:54:44;0.40;;;0.30;;
4144;SDS011;2086;51.050;6.982;2022-07-21T05:57:09;0.63;;;0.60;;
4144;SDS011;2086;51.050;6.982;2022-07-21T05:59:35;0.40;;;0.30;;
4144;SDS011;2086;51.050;6.982;2022-07-21T06:02:00;0.40;;;0.30;;
4144;SDS011;2086;51.050;6.982;2022-07-21T06:04:25;0.40;;;0.30;;
4144;SDS011;2086;51.050;6.982;2022-07-21T06:06:50;0.50;;;0.50;;
4144;SDS011;2086;51.050;6.982;2022-07-21T06:09:17;1.40;;;1.30;;
4144;SDS011;2086;51.050;6.982;2022-07-21T06:11:42;0.40;;;0.30;;
4144;SDS011;2086;51.050;6.982;2022-07-21T06:14:08;0.40;;;0.30;;
4144;SDS011;2086;51.050;6.982;2022-07-21T06:16:33;1.07;;;1.07;;
4144;SDS011;2086;51.050;6.982;2022-07-21T06:18:58;0.40;;;0.30;;
4144;SDS011;2086;51.050;6.982;2022-07-21T06:21:23;0.40;;;0.30;;
4144;SDS011;2086;51.050;6.982;2022-07-21T06:23:49;0.70;;;0.67;;
4144;SDS011;2086;51.050;6.982;2022-07-21T06:26:14;0.40;;;0.30;;
4144;SDS011;2086;51.050;6.982;2022-07-21T06:28:39;0.40;;;0.30;;
4144;SDS011;2086;51.050;6.982;2022-07-21T06:31:04;0.40;;;0.40;;
4144;SDS011;2086;51.050;6.982;2022-07-21T06:33:30;0.40;;;0.30;;
4144;SDS011;2086;51.050;6.982;2022-07-21T06:35:55;0.40;;;0.40;;
4144;SDS011;2086;51.050;6.982;2022-07-21T06:38:20;0.40;;;0.30;;
4144;SDS011;2086;51.050;6.982;2022-07-21T06:40:45;0.40;;;0.30;;
4144;SDS011;2086;51.050;6.982;2022-07-21T06:43:11;0.40;;;0.30;;
4144;SDS011;2086;51.050;6.982;2022-07-21T06:45:37;0.40;;;0.30;;
4144;SDS011;2086;51.050;6.982;2022-07-21T06:48:06;0.40;;;0.30;;
4144;SDS011;2086;51.050;6.982;2022-07-21T06:50:32;0.40;;;0.30;;
4144;SDS011;2086;51.050;6.982;2022-07-21T06:52:57;0.40;;;0.30;;
4144;SDS011;2086;51.050;6.982;2022-07-21T06:55:23;0.40;;;0.30;;
4144;SDS011;2086;51.050;6.982;2022-07-21T06:57:48;0.40;;;0.30;;
4144;SDS011;2086;51.050;6.982;2022-07-21T07:00:13;0.40;;;0.30;;
4144;SDS011;2086;51.050;6.982;2022-07-21T07:02:39;0.40;;;0.30;;
4144;SDS011;2086;51.050;6.982;2022-07-21T07:05:04;0.40;;;0.30;;
4144;SDS011;2086;51.050;6.982;2022-07-21T07:07:29;0.40;;;0.30;;
4144;SDS011;2086;51.050;6.982;2022-07-21T07:09:55;0.40;;;0.40;;
4144;SDS011;2086;51.050;6.982;2022-07-21T07:12:21;0.40;;;0.30;;
4144;SDS011;2086;51.050;6.982;2022-07-21T07:14:46;0.40;;;0.30;;
4144;SDS011;2086;51.050;6.982;2022-07-21T07:17:15;0.63;;;0.63;;
4144;SDS011;2086;51.050;6.982;2022-07-21T07:19:40;0.40;;;0.30;;
4144;SDS011;2086;51.050;6.982;2022-07-21T07:22:06;0.40;;;0.30;;
4144;SDS011;2086;51.050;6.982;2022-07-21T07:24:31;0.40;;;0.30;;
4144;SDS011;2086;51.050;6.982;2022-07-21T07:26:56;0.40;;;0.30;;
4144;SDS011;2086;51.050;6.982;2022-07-21T07:29:22;0.40;;;0.30;;
4144;SDS011;2086;51.050;6.982;2022-07-21T07:31:47;0.60;;;0.60;;
4144;SDS011;2086;51.050;6.982;2022-07-21T07:34:12;0.40;;;0.30;;
4144;SDS011;2086;51.050;6.982;2022-07-21T07:36:37;0.40;;;0.30;;
4144;SDS011;2086;51.050;6.982;2022-07-21T07:39:03;0.40;;;0.40;;
4144;SDS011;2086;51.050;6.982;2022-07-21T07:41:29;0.40;;;0.30;;
4144;SDS011;2086;51.050;6.982;2022-07-21T07:43:55;2.50;;;2.20;;
4144;SDS011;2086;51.050;6.982;2022-07-21T07:46:21;0.40;;;0.30;;
4144;SDS011;2086;51.050;6.982;2022-07-21T07:48:46;0.40;;;0.30;;
4144;SDS011;2086;51.050;6.982;2022-07-21T07:51:13;0.40;;;0.30;;
4144;SDS011;2086;51.050;6.982;2022-07-21T07:53:39;0.40;;;0.30;;
4144;SDS011;2086;51.050;6.982;2022-07-21T07:56:04;0.40;;;0.30;;
4144;SDS011;2086;51.050;6.982;2022-07-21T07:58:30;0.40;;;0.40;;
4144;SDS011;2086;51.050;6.982;2022-07-21T08:00:55;0.40;;;0.40;;
4144;SDS011;2086;51.050;6.982;2022-07-21T08:03:21;0.40;;;0.30;;
4144;SDS011;2086;51.050;6.982;2022-07-21T08:05:47;0.40;;;0.30;;
4144;SDS011;2086;51.050;6.982;2022-07-21T08:08:12;0.40;;;0.30;;
4144;SDS011;2086;51.050;6.982;2022-07-21T08:10:38;0.40;;;0.40;;
4144;SDS011;2086;51.050;6.982;2022-07-21T08:13:03;0.40;;;0.40;;
4144;SDS011;2086;51.050;6.982;2022-07-21T08:15:28;0.40;;;0.40;;
4144;SDS011;2086;51.050;6.982;2022-07-21T08:17:54;1.43;;;1.33;;
4144;SDS011;2086;51.050;6.982;2022-07-21T08:20:19;0.40;;;0.30;;
4144;SDS011;2086;51.050;6.982;2022-07-21T08:22:44;0.40;;;0.30;;
4144;SDS011;2086;51.050;6.982;2022-07-21T08:25:10;0.40;;;0.40;;
4144;SDS011;2086;51.050;6.982;2022-07-21T08:27:35;0.40;;;0.30;;
4144;SDS011;2086;51.050;6.982;2022-07-21T08:30:00;0.40;;;0.30;;
4144;SDS011;2086;51.050;6.982;2022-07-21T08:32:25;2.57;;;2.37;;
4144;SDS011;2086;51.050;6.982;2022-07-21T08:34:51;2.60;;;1.07;;
4144;SDS011;2086;51.050;6.982;2022-07-21T08:37:18;0.40;;;0.30;;
4144;SDS011;2086;51.050;6.982;2022-07-21T08:39:43;0.40;;;0.30;;
4144;SDS011;2086;51.050;6.982;2022-07-21T08:42:08;0.40;;;0.30;;
4144;SDS011;2086;51.050;6.982;2022-07-21T08:44:35;0.40;;;0.30;;
4144;SDS011;2086;51.050;6.982;2022-07-21T08:47:00;0.57;;;0.57;;
4144;SDS011;2086;51.050;6.982;2022-07-21T08:49:26;0.63;;;0.60;;
4144;SDS011;2086;51.050;6.982;2022-07-21T08:51:51;0.40;;;0.30;;
4144;SDS011;2086;51.050;6.982;2022-07-21T08:54:17;0.40;;;0.30;;
4144;SDS011;2086;51.050;6.982;2022-07-21T08:56:44;0.40;;;0.30;;
4144;SDS011;2086;51.050;6.982;2022-07-21T08:59:09;0.40;;;0.30;;
4144;SDS011;2086;51.050;6.982;2022-07-21T09:01:34;0.40;;;0.30;;
4144;SDS011;2086;51.050;6.982;2022-07-21T09:04:18;0.40;;;0.30;;
4144;SDS011;2086;51.050;6.982;2022-07-21T09:06:55;0.40;;;0.30;;
4144;SDS011;2086;51.050;6.982;2022-07-21T09:09:20;5.10;;;1.50;;
4144;SDS011;2086;51.050;6.982;2022-07-21T09:11:46;0.40;;;0.30;;
4144;SDS011;2086;51.050;6.982;2022-07-21T09:14:12;0.40;;;0.30;;
4144;SDS011;2086;51.050;6.982;2022-07-21T09:16:39;0.40;;;0.30;;
4144;SDS011;2086;51.050;6.982;2022-07-21T09:19:05;0.40;;;0.30;;
4144;SDS011;2086;51.050;6.982;2022-07-21T09:21:34;0.50;;;0.50;;
4144;SDS011;2086;51.050;6.982;2022-07-21T09:29:21;4.13;;;1.37;;
4144;SDS011;2086;51.050;6.982;2022-07-21T09:31:46;2.83;;;2.73;;
4144;SDS011;2086;51.050;6.982;2022-07-21T09:34:14;2.70;;;2.50;;
4144;SDS011;2086;51.050;6.982;2022-07-21T09:36:51;2.70;;;2.47;;
4144;SDS011;2086;51.050;6.982;2022-07-21T09:39:18;2.10;;;2.00;;
4144;SDS011;2086;51.050;6.982;2022-07-21T09:41:44;2.53;;;2.30;;
4144;SDS011;2086;51.050;6.982;2022-07-21T09:44:09;3.30;;;2.10;;
4144;SDS011;2086;51.050;6.982;2022-07-21T09:46:34;2.47;;;2.37;;
4144;SDS011;2086;51.050;6.982;2022-07-21T09:49:00;2.30;;;2.20;;
4144;SDS011;2086;51.050;6.982;2022-07-21T09:53:53;2.17;;;2.07;;
4144;SDS011;2086;51.050;6.982;2022-07-21T09:56:19;2.40;;;2.30;;
4144;SDS011;2086;51.050;6.982;2022-07-21T09:58:45;1.97;;;1.87;;
4144;SDS011;2086;51.050;6.982;2022-07-21T10:01:10;1.67;;;1.57;;
4144;SDS011;2086;51.050;6.982;2022-07-21T10:03:36;2.40;;;2.20;;
4144;SDS011;2086;51.050;6.982;2022-07-21T10:06:02;2.70;;;2.50;;
4144;SDS011;2086;51.050;6.982;2022-07-21T10:08:27;2.10;;;1.90;;
4144;SDS011;2086;51.050;6.982;2022-07-21T10:10:53;3.67;;;1.80;;
4144;SDS011;2086;51.050;6.982;2022-07-21T10:13:18;2.60;;;2.23;;
4144;SDS011;2086;51.050;6.982;2022-07-21T10:15:45;2.13;;;2.00;;
4144;SDS011;2086;51.050;6.982;2022-07-21T10:18:11;2.30;;;2.20;;
4144;SDS011;2086;51.050;6.982;2022-07-21T10:20:38;3.03;;;2.83;;
4144;SDS011;2086;51.050;6.982;2022-07-21T10:25:35;2.80;;;2.70;;
4144;SDS011;2086;51.050;6.982;2022-07-21T10:30:45;2.73;;;2.53;;
4144;SDS011;2086;51.050;6.982;2022-07-21T10:33:15;3.20;;;3.10;;
4144;SDS011;2086;51.050;6.982;2022-07-21T10:35:42;2.13;;;2.03;;
4144;SDS011;2086;51.050;6.982;2022-07-21T10:38:07;3.20;;;3.00;;
4144;SDS011;2086;51.050;6.982;2022-07-21T10:40:49;3.27;;;3.07;;
4144;SDS011;2086;51.050;6.982;2022-07-21T10:45:40;2.73;;;2.63;;
4144;SDS011;2086;51.050;6.982;2022-07-21T10:48:08;2.60;;;2.40;;
4144;SDS011;2086;51.050;6.982;2022-07-21T10:50:53;3.40;;;3.10;;
4144;SDS011;2086;51.050;6.982;2022-07-21T10:53:22;2.43;;;2.33;;
4144;SDS011;2086;51.050;6.982;2022-07-21T10:55:51;2.87;;;2.67;;
4144;SDS011;2086;51.050;6.982;2022-07-21T11:00:45;3.40;;;3.20;;
4144;SDS011;2086;51.050;6.982;2022-07-21T11:03:21;3.27;;;2.50;;
4144;SDS011;2086;51.050;6.982;2022-07-21T11:08:32;3.73;;;3.53;;
4144;SDS011;2086;51.050;6.982;2022-07-21T11:13:56;4.53;;;4.27;;
4144;SDS011;2086;51.050;6.982;2022-07-21T11:16:17;3.33;;;3.13;;
4144;SDS011;2086;51.050;6.982;2022-07-21T11:18:42;3.80;;;3.37;;
4144;SDS011;2086;51.050;6.982;2022-07-21T11:23:36;3.87;;;3.67;;
4144;SDS011;2086;51.050;6.982;2022-07-21T11:26:01;4.57;;;4.27;;
4144;SDS011;2086;51.050;6.982;2022-07-21T11:28:27;3.70;;;3.50;;
4144;SDS011;2086;51.050;6.982;2022-07-21T11:31:12;6.20;;;4.70;;
4144;SDS011;2086;51.050;6.982;2022-07-21T11:33:38;4.97;;;4.47;;
4144;SDS011;2086;51.050;6.982;2022-07-21T11:36:03;3.90;;;3.60;;
4144;SDS011;2086;51.050;6.982;2022-07-21T11:38:29;4.50;;;4.13;;
4144;SDS011;2086;51.050;6.982;2022-07-21T11:41:11;4.63;;;4.17;;
4144;SDS011;2086;51.050;6.982;2022-07-21T11:43:40;8.53;;;4.90;;
4144;SDS011;2086;51.050;6.982;2022-07-21T11:46:06;4.97;;;3.77;;
4144;SDS011;2086;51.050;6.982;2022-07-21T11:48:31;4.70;;;4.00;;
4144;SDS011;2086;51.050;6.982;2022-07-21T11:51:00;3.97;;;3.57;;
4144;SDS011;2086;51.050;6.982;2022-07-21T11:53:26;6.33;;;4.13;;
4144;SDS011;2086;51.050;6.982;2022-07-21T11:55:51;3.50;;;3.30;;
4144;SDS011;2086;51.050;6.982;2022-07-21T11:58:18;4.47;;;3.90;;
4144;SDS011;2086;51.050;6.982;2022-07-21T12:00:44;4.97;;;4.53;;
4144;SDS011;2086;51.050;6.982;2022-07-21T12:03:11;11.53;;;4.53;;
4144;SDS011;2086;51.050;6.982;2022-07-21T12:05:38;5.23;;;4.83;;
4144;SDS011;2086;51.050;6.982;2022-07-21T12:08:04;4.73;;;4.33;;
4144;SDS011;2086;51.050;6.982;2022-07-21T12:10:29;4.73;;;3.50;;
4144;SDS011;2086;51.050;6.982;2022-07-21T12:13:02;5.03;;;4.30;;
4144;SDS011;2086;51.050;6.982;2022-07-21T12:15:28;4.57;;;4.17;;
4144;SDS011;2086;51.050;6.982;2022-07-21T12:18:00;3.53;;;3.23;;
4144;SDS011;2086;51.050;6.982;2022-07-21T12:20:33;5.10;;;4.27;;
4144;SDS011;2086;51.050;6.982;2022-07-21T12:23:00;4.07;;;3.87;;
4144;SDS011;2086;51.050;6.982;2022-07-21T12:25:33;4.37;;;3.97;;
4144;SDS011;2086;51.050;6.982;2022-07-21T12:27:58;3.80;;;3.50;;
4144;SDS011;2086;51.050;6.982;2022-07-21T12:30:31;3.70;;;3.40;;
4144;SDS011;2086;51.050;6.982;2022-07-21T12:33:01;4.90;;;4.07;;
4144;SDS011;2086;51.050;6.982;2022-07-21T12:35:26;4.13;;;3.93;;
4144;SDS011;2086;51.050;6.982;2022-07-21T12:40:17;6.47;;;4.40;;
4144;SDS011;2086;51.050;6.982;2022-07-21T12:42:43;4.10;;;3.80;;
4144;SDS011;2086;51.050;6.982;2022-07-21T12:45:12;3.67;;;3.47;;
4144;SDS011;2086;51.050;6.982;2022-07-21T12:47:38;3.80;;;3.50;;
4144;SDS011;2086;51.050;6.982;2022-07-21T12:50:05;5.50;;;4.27;;
4144;SDS011;2086;51.050;6.982;2022-07-21T12:52:31;8.90;;;5.07;;
4144;SDS011;2086;51.050;6.982;2022-07-21T12:54:57;6.47;;;4.87;;
4144;SDS011;2086;51.050;6.982;2022-07-21T12:57:24;5.17;;;4.67;;
4144;SDS011;2086;51.050;6.982;2022-07-21T12:59:50;5.20;;;4.70;;
4144;SDS011;2086;51.050;6.982;2022-07-21T13:02:15;5.73;;;5.13;;
4144;SDS011;2086;51.050;6.982;2022-07-21T13:04:40;7.13;;;5.93;;
4144;SDS011;2086;51.050;6.982;2022-07-21T13:07:07;4.53;;;4.10;;
4144;SDS011;2086;51.050;6.982;2022-07-21T13:09:32;4.03;;;3.83;;
4144;SDS011;2086;51.050;6.982;2022-07-21T13:11:57;4.33;;;3.93;;
4144;SDS011;2086;51.050;6.982;2022-07-21T13:14:23;4.37;;;3.97;;
4144;SDS011;2086;51.050;6.982;2022-07-21T13:16:48;9.83;;;4.40;;
4144;SDS011;2086;51.050;6.982;2022-07-21T13:19:13;5.50;;;5.03;;
4144;SDS011;2086;51.050;6.982;2022-07-21T13:21:38;5.00;;;4.47;;
4144;SDS011;2086;51.050;6.982;2022-07-21T13:24:04;5.30;;;4.77;;
4144;SDS011;2086;51.050;6.982;2022-07-21T13:26:29;6.70;;;4.73;;
4144;SDS011;2086;51.050;6.982;2022-07-21T13:28:54;7.23;;;5.00;;
4144;SDS011;2086;51.050;6.982;2022-07-21T13:31:20;13.03;;;5.07;;
4144;SDS011;2086;51.050;6.982;2022-07-21T13:33:46;10.43;;;6.37;;
4144;SDS011;2086;51.050;6.982;2022-07-21T13:36:11;6.90;;;6.23;;
4144;SDS011;2086;51.050;6.982;2022-07-21T13:38:37;5.47;;;4.17;;
4144;SDS011;2086;51.050;6.982;2022-07-21T13:41:02;4.47;;;4.10;;
4144;SDS011;2086;51.050;6.982;2022-07-21T13:43:27;4.07;;;3.77;;
4144;SDS011;2086;51.050;6.982;2022-07-21T13:45:52;3.00;;;2.73;;
4144;SDS011;2086;51.050;6.982;2022-07-21T13:48:18;2.50;;;2.40;;
4144;SDS011;2086;51.050;6.982;2022-07-21T13:50:43;2.50;;;2.40;;
4144;SDS011;2086;51.050;6.982;2022-07-21T13:53:08;3.70;;;2.87;;
4144;SDS011;2086;51.050;6.982;2022-07-21T13:55:34;3.43;;;3.23;;
4144;SDS011;2086;51.050;6.982;2022-07-21T13:57:59;3.30;;;3.10;;
4144;SDS011;2086;51.050;6.982;2022-07-21T14:00:24;1.87;;;1.77;;
4144;SDS011;2086;51.050;6.982;2022-07-21T14:02:49;2.03;;;1.80;;
4144;SDS011;2086;51.050;6.982;2022-07-21T14:05:15;2.87;;;2.67;;
4144;SDS011;2086;51.050;6.982;2022-07-21T14:07:40;5.30;;;2.50;;
4144;SDS011;2086;51.050;6.982;2022-07-21T14:10:05;2.03;;;1.93;;
4144;SDS011;2086;51.050;6.982;2022-07-21T14:12:31;2.40;;;2.30;;
4144;SDS011;2086;51.050;6.982;2022-07-21T14:14:56;2.03;;;1.90;;
4144;SDS011;2086;51.050;6.982;2022-07-21T14:17:21;3.50;;;3.17;;
4144;SDS011;2086;51.050;6.982;2022-07-21T14:19:47;2.30;;;2.20;;
4144;SDS011;2086;51.050;6.982;2022-07-21T14:22:14;3.17;;;2.97;;
4144;SDS011;2086;51.050;6.982;2022-07-21T14:24:39;3.63;;;2.77;;
4144;SDS011;2086;51.050;6.982;2022-07-21T14:27:23;4.20;;;3.90;;
4144;SDS011;2086;51.050;6.982;2022-07-21T14:29:48;4.97;;;4.53;;
4144;SDS011;2086;51.050;6.982;2022-07-21T14:32:13;3.80;;;3.60;;
4144;SDS011;2086;51.050;6.982;2022-07-21T14:34:41;4.07;;;3.77;;
4144;SDS011;2086;51.050;6.982;2022-07-21T14:37:06;3.97;;;3.57;;
4144;SDS011;2086;51.050;6.982;2022-07-21T14:39:31;3.60;;;3.23;;
4144;SDS011;2086;51.050;6.982;2022-07-21T14:41:58;3.30;;;3.10;;
4144;SDS011;2086;51.050;6.982;2022-07-21T14:44:23;3.93;;;3.60;;
4144;SDS011;2086;51.050;6.982;2022-07-21T14:46:48;8.40;;;3.10;;
4144;SDS011;2086;51.050;6.982;2022-07-21T14:49:14;4.20;;;3.20;;
4144;SDS011;2086;51.050;6.982;2022-07-21T14:51:39;3.70;;;3.40;;
4144;SDS011;2086;51.050;6.982;2022-07-21T14:54:04;2.97;;;2.70;;
4144;SDS011;2086;51.050;6.982;2022-07-21T14:56:29;3.50;;;3.20;;
4144;SDS011;2086;51.050;6.982;2022-07-21T14:58:55;2.83;;;2.63;;
4144;SDS011;2086;51.050;6.982;2022-07-21T15:01:20;3.20;;;3.00;;
4144;SDS011;2086;51.050;6.982;2022-07-21T15:03:45;3.07;;;2.77;;
4144;SDS011;2086;51.050;6.982;2022-07-21T15:06:10;2.93;;;2.83;;
4144;SDS011;2086;51.050;6.982;2022-07-21T15:08:36;3.27;;;2.90;;
4144;SDS011;2086;51.050;6.982;2022-07-21T15:11:01;3.70;;;3.50;;
4144;SDS011;2086;51.050;6.982;2022-07-21T15:13:26;2.60;;;2.30;;
4144;SDS011;2086;51.050;6.982;2022-07-21T15:15:54;3.20;;;3.00;;
4144;SDS011;2086;51.050;6.982;2022-07-21T15:18:19;3.83;;;2.97;;
4144;SDS011;2086;51.050;6.982;2022-07-21T15:20:45;3.13;;;2.93;;
4144;SDS011;2086;51.050;6.982;2022-07-21T15:23:10;2.97;;;2.50;;
4144;SDS011;2086;51.050;6.982;2022-07-21T15:25:35;2.30;;;2.20;;
4144;SDS011;2086;51.050;6.982;2022-07-21T15:28:01;3.87;;;3.53;;
4144;SDS011;2086;51.050;6.982;2022-07-21T15:30:26;2.67;;;2.47;;
4144;SDS011;2086;51.050;6.982;2022-07-21T15:32:51;2.87;;;2.67;;
4144;SDS011;2086;51.050;6.982;2022-07-21T15:35:16;4.33;;;3.43;;
4144;SDS011;2086;51.050;6.982;2022-07-21T15:37:42;2.07;;;1.97;;